Time;durP1;ratioP1;P1;durP2;ratioP2;P2;SDS_P1;SDS_P2;PMS_P1;PMS_P2;Temp;Humidity;BMP_temperature;BMP_pressure;BME280_temperature;BME280_humidity;BME280_pressure;Samples;Min_cycle;Max_cycle;Signal;HPM_P1;HPM_P2
2022/07/31 00:01:57;;;;;;;;;;;;;;;;;;5117562;28;19930;-69
2022/07/31 00:04:24;;;;;;;;;;;;;;;;;;5118021;28;20305;-70
2022/07/31 00:06:51;;;;;;;;;;;;;;;;;;5117297;28;19923;-69
2022/07/31 00:09:17;;;;;;;;;;;;;;;;;;5116202;28;19924;-69
2022/07/31 00:11:44;;;;;;;;;;;;;;;;;;5116102;28;19927;-70
2022/07/31 00:14:11;;;;;;;;;;;;;;;;;;5115386;28;19931;-70
2022/07/31 00:16:37;;;;;;;;;;;;;;;;;;5115515;28;19931;-70
2022/07/31 00:19:06;;;;;;;;;;;;;;;;;;5115567;28;19927;-69
2022/07/31 00:21:32;;;;;;;;;;;;;;;;;;5115930;28;19923;-70
2022/07/31 00:23:59;;;;;;;;;;;;;;;;;;5115682;28;20397;-70
2022/07/31 00:26:25;;;;;;;;;;;;;;;;;;5116036;28;19923;-70
2022/07/31 00:28:52;;;;;;;;;;;;;;;;;;5116071;28;19923;-70
2022/07/31 00:31:19;;;;;;;;;;;;;;;;;;5116003;28;20409;-70
2022/07/31 00:33:45;;;;;;;;;;;;;;;;;;5116252;28;19924;-69
2022/07/31 00:36:13;;;;;;;;;;;;;;;;;;5115908;28;19928;-70
2022/07/31 00:38:40;;;;;;;;;;;;;;;;;;5116109;28;19923;-68
2022/07/31 00:41:07;;;;;;;;;;;;;;;;;;5115148;28;19924;-67
2022/07/31 00:43:34;;;;;;;;;;;;;;;;;;5115132;28;20302;-67
2022/07/31 00:46:01;;;;;;;;;;;;;;;;;;5114892;28;19931;-67
2022/07/31 00:48:28;;;;;;;;;;;;;;;;;;5114793;28;19924;-71
2022/07/31 00:50:54;;;;;;;;;;;;;;;;;;5114608;28;19935;-70
2022/07/31 00:53:23;;;;;;;;;;;;;;;;;;5115386;28;19924;-70
2022/07/31 00:55:49;;;;;;;;;;;;;;;;;;5114769;28;19931;-71
2022/07/31 00:58:16;;;;;;;;;;;;;;;;;;5114804;28;20051;-69
2022/07/31 01:00:42;;;;;;;;;;;;;;;;;;5114609;28;19924;-70
2022/07/31 01:03:09;;;;;;;;;;;;;;;;;;5114517;28;19924;-70
2022/07/31 01:05:35;;;;;;;;;;;;;;;;;;5114745;28;19924;-71
2022/07/31 01:08:02;;;;;;;;;;;;;;;;;;5114893;28;20436;-72
2022/07/31 01:10:38;;;;;;;;;;;;;;;;;;5114076;28;19969;-70
2022/07/31 01:13:08;;;;;;;;;;;;;;;;;;5114376;28;19942;-71
2022/07/31 01:15:36;;;;;;;;;;;;;;;;;;5113788;28;19932;-72
2022/07/31 01:18:04;;;;;;;;;;;;;;;;;;5114739;28;19924;-70
2022/07/31 01:20:31;;;;;;;;;;;;;;;;;;5113884;28;19924;-70
2022/07/31 01:23:13;;;;;;;;;;;;;;;;;;5114869;28;19977;-70
2022/07/31 01:25:46;;;;;;;;;;;;;;;;;;5114900;28;19931;-70
2022/07/31 01:28:18;;;;;;;;;;;;;;;;;;5114313;28;20024;-70
2022/07/31 01:30:48;;;;;;;;;;;;;;;;;;5114147;28;19927;-70
2022/07/31 01:33:18;;;;;;;;;;;;;;;;;;5114677;28;20388;-71
2022/07/31 01:35:45;;;;;;;;;;;;;;;;;;5114269;28;20292;-70
2022/07/31 01:38:14;;;;;;;;;;;;;;;;;;5113952;28;20261;-70
2022/07/31 01:40:42;;;;;;;;;;;;;;;;;;5113377;28;19924;-71
2022/07/31 01:43:12;;;;;;;;;;;;;;;;;;5113898;28;19927;-71
2022/07/31 01:45:40;;;;;;;;;;;;;;;;;;5113835;28;19982;-71
2022/07/31 01:48:11;;;;;;;;;;;;;;;;;;5114808;28;19931;-68
2022/07/31 01:50:38;;;;;;;;;;;;;;;;;;5114143;28;20019;-67
2022/07/31 01:53:06;;;;;;;;;;;;;;;;;;5113521;28;19947;-67
2022/07/31 01:55:34;;;;;;;;;;;;;;;;;;5113684;28;19930;-69
2022/07/31 01:58:01;;;;;;;;;;;;;;;;;;5113848;28;20007;-67
2022/07/31 02:00:27;;;;;;;;;;;;;;;;;;5106984;28;20277;-68
2022/07/31 02:02:55;;;;;;;;;;;;;;;;;;5093095;28;19928;-69
2022/07/31 02:05:24;;;;;;;;;;;;;;;;;;5093298;28;20285;-68
2022/07/31 02:07:52;;;;;;;;;;;;;;;;;;5093512;28;20381;-68
2022/07/31 02:10:19;;;;;;;;;;;;;;;;;;5092952;28;19999;-69
2022/07/31 02:12:46;;;;;;;;;;;;;;;;;;5092787;28;19931;-68
2022/07/31 02:15:14;;;;;;;;;;;;;;;;;;5093239;28;19982;-68
2022/07/31 02:17:41;;;;;;;;;;;;;;;;;;5092765;28;19924;-67
2022/07/31 02:20:10;;;;;;;;;;;;;;;;;;5092574;28;19932;-69
2022/07/31 02:22:38;;;;;;;;;;;;;;;;;;5092744;28;20373;-69
2022/07/31 02:25:06;;;;;;;;;;;;;;;;;;5092945;28;19979;-69
2022/07/31 02:27:33;;;;;;;;;;;;;;;;;;5092893;28;19932;-69
2022/07/31 02:30:02;;;;;;;;;;;;;;;;;;5092712;28;19993;-68
2022/07/31 02:32:29;;;;;;;;;;;;;;;;;;5097487;28;19977;-68
2022/07/31 02:34:56;;;;;;;;;;;;;;;;;;5099648;28;19975;-69
2022/07/31 02:37:23;;;;;;;;;;;;;;;;;;5099409;28;19928;-68
2022/07/31 02:39:52;;;;;;;;;;;;;;;;;;5099367;28;19924;-68
2022/07/31 02:42:19;;;;;;;;;;;;;;;;;;5099216;28;19978;-69
2022/07/31 02:44:46;;;;;;;;;;;;;;;;;;5099375;28;19924;-68
2022/07/31 02:47:13;;;;;;;;;;;;;;;;;;5099022;28;20274;-69
2022/07/31 02:49:39;;;;;;;;;;;;;;;;;;5098992;28;19924;-67
2022/07/31 02:52:07;;;;;;;;;;;;;;;;;;5098958;28;20281;-67
2022/07/31 02:54:34;;;;;;;;;;;;;;;;;;5099032;28;20285;-68
2022/07/31 02:57:02;;;;;;;;;;;;;;;;;;5099488;28;19924;-67
2022/07/31 02:59:29;;;;;;;;;;;;;;;;;;5099142;28;19924;-68
2022/07/31 03:01:55;;;;;;;;;;;;;;;;;;5098836;28;20296;-69
2022/07/31 03:04:22;;;;;;;;;;;;;;;;;;5098919;28;19931;-68
2022/07/31 03:06:49;;;;;;;;;;;;;;;;;;5098856;28;19924;-69
2022/07/31 03:09:16;;;;;;;;;;;;;;;;;;5099069;28;20011;-69
2022/07/31 03:11:42;;;;;;;;;;;;;;;;;;5098812;28;19931;-66
2022/07/31 03:14:12;;;;;;;;;;;;;;;;;;5099126;28;19924;-69
2022/07/31 03:16:39;;;;;;;;;;;;;;;;;;5098757;28;20007;-68
2022/07/31 03:19:07;;;;;;;;;;;;;;;;;;5098748;28;20022;-68
2022/07/31 03:21:34;;;;;;;;;;;;;;;;;;5099344;28;19946;-69
2022/07/31 03:24:01;;;;;;;;;;;;;;;;;;5099062;28;19932;-68
2022/07/31 03:26:28;;;;;;;;;;;;;;;;;;5098686;28;20377;-69
2022/07/31 03:28:55;;;;;;;;;;;;;;;;;;5098746;28;20335;-69
2022/07/31 03:31:23;;;;;;;;;;;;;;;;;;5099096;28;20373;-68
2022/07/31 03:33:49;;;;;;;;;;;;;;;;;;5099024;28;19924;-67
2022/07/31 03:36:16;;;;;;;;;;;;;;;;;;5098725;28;19923;-69
2022/07/31 03:38:43;;;;;;;;;;;;;;;;;;5098616;28;19928;-68
2022/07/31 03:41:09;;;;;;;;;;;;;;;;;;5098465;28;19924;-68
2022/07/31 03:43:37;;;;;;;;;;;;;;;;;;5095603;28;19931;-68
2022/07/31 03:46:04;;;;;;;;;;;;;;;;;;5095727;28;19931;-68
2022/07/31 03:48:32;;;;;;;;;;;;;;;;;;5095215;28;19931;-68
2022/07/31 03:50:59;;;;;;;;;;;;;;;;;;5095774;28;19928;-68
2022/07/31 03:53:26;;;;;;;;;;;;;;;;;;5095363;28;19931;-69
2022/07/31 03:55:53;;;;;;;;;;;;;;;;;;5095335;28;20051;-70
2022/07/31 03:58:20;;;;;;;;;;;;;;;;;;5095591;28;19928;-70
2022/07/31 04:00:47;;;;;;;;;;;;;;;;;;5095452;28;20261;-68
2022/07/31 04:03:14;;;;;;;;;;;;;;;;;;5095131;28;19924;-69
2022/07/31 04:05:42;;;;;;;;;;;;;;;;;;5095368;28;19974;-69
2022/07/31 04:08:09;;;;;;;;;;;;;;;;;;5094988;28;19924;-68
2022/07/31 04:10:36;;;;;;;;;;;;;;;;;;5095311;28;20430;-68
2022/07/31 04:13:02;;;;;;;;;;;;;;;;;;5094815;28;19975;-68
2022/07/31 04:15:29;;;;;;;;;;;;;;;;;;5095280;28;19931;-67
2022/07/31 04:17:56;;;;;;;;;;;;;;;;;;5095366;28;19928;-68
2022/07/31 04:20:22;;;;;;;;;;;;;;;;;;5094785;28;19955;-69
2022/07/31 04:22:50;;;;;;;;;;;;;;;;;;5094839;28;19924;-67
2022/07/31 04:25:17;;;;;;;;;;;;;;;;;;5095364;28;20297;-69
2022/07/31 04:27:43;;;;;;;;;;;;;;;;;;5095148;28;19939;-67
2022/07/31 04:30:10;;;;;;;;;;;;;;;;;;5094837;28;19925;-69
2022/07/31 04:32:37;;;;;;;;;;;;;;;;;;5094925;28;19924;-68
2022/07/31 04:35:04;;;;;;;;;;;;;;;;;;5094599;28;19931;-67
2022/07/31 04:37:32;;;;;;;;;;;;;;;;;;5095290;28;20030;-68
2022/07/31 04:40:00;;;;;;;;;;;;;;;;;;5094222;28;19931;-67
2022/07/31 04:42:26;;;;;;;;;;;;;;;;;;5094234;28;19924;-69
2022/07/31 04:44:53;;;;;;;;;;;;;;;;;;5094190;28;19931;-68
2022/07/31 04:47:19;;;;;;;;;;;;;;;;;;5094376;28;20321;-69
2022/07/31 04:49:46;;;;;;;;;;;;;;;;;;5094128;28;19928;-68
2022/07/31 04:52:13;;;;;;;;;;;;;;;;;;5094143;28;19924;-68
2022/07/31 04:54:39;;;;;;;;;;;;;;;;;;5093843;28;19924;-69
2022/07/31 04:57:07;;;;;;;;;;;;;;;;;;5093839;28;19928;-71
2022/07/31 04:59:34;;;;;;;;;;;;;;;;;;5093934;28;19931;-67
2022/07/31 05:02:00;;;;;;;;;;;;;;;;;;5113666;28;19946;-67
2022/07/31 05:04:27;;;;;;;;;;;;;;;;;;5114217;28;19923;-68
2022/07/31 05:06:54;;;;;;;;;;;;;;;;;;5114250;28;19928;-68
2022/07/31 05:09:21;;;;;;;;;;;;;;;;;;5114453;28;19931;-70
2022/07/31 05:11:48;;;;;;;;;;;;;;;;;;5114299;28;19928;-69
2022/07/31 05:14:17;;;;;;;;;;;;;;;;;;5114241;28;19924;-68
2022/07/31 05:16:43;;;;;;;;;;;;;;;;;;5114427;28;20388;-69
2022/07/31 05:19:10;;;;;;;;;;;;;;;;;;5114279;28;19923;-69
2022/07/31 05:21:37;;;;;;;;;;;;;;;;;;5114285;28;19943;-68
2022/07/31 05:24:04;;;;;;;;;;;;;;;;;;5114331;28;20352;-68
2022/07/31 05:26:31;;;;;;;;;;;;;;;;;;5114051;28;19924;-69
2022/07/31 05:28:58;;;;;;;;;;;;;;;;;;5113729;28;19969;-69
2022/07/31 05:31:27;;;;;;;;;;;;;;;;;;5114065;28;19924;-68
2022/07/31 05:33:53;;;;;;;;;;;;;;;;;;5113515;28;19924;-68
2022/07/31 05:36:20;;;;;;;;;;;;;;;;;;5113759;28;19924;-67
2022/07/31 05:38:47;;;;;;;;;;;;;;;;;;5113636;28;19928;-69
2022/07/31 05:41:14;;;;;;;;;;;;;;;;;;5113785;28;19947;-69
2022/07/31 05:43:40;;;;;;;;;;;;;;;;;;5113772;28;19924;-67
2022/07/31 05:46:07;;;;;;;;;;;;;;;;;;5113894;28;19934;-68
2022/07/31 05:48:35;;;;;;;;;;;;;;;;;;5113461;28;19924;-69
2022/07/31 05:51:01;;;;;;;;;;;;;;;;;;5113712;28;19928;-68
2022/07/31 05:53:28;;;;;;;;;;;;;;;;;;5113377;28;20380;-69
2022/07/31 05:55:55;;;;;;;;;;;;;;;;;;5113392;28;19939;-67
2022/07/31 05:58:21;;;;;;;;;;;;;;;;;;5113377;28;19930;-69
2022/07/31 06:00:48;;;;;;;;;;;;;;;;;;5113857;28;19940;-68
2022/07/31 06:03:15;;;;;;;;;;;;;;;;;;5113197;28;20444;-68
2022/07/31 06:05:43;;;;;;;;;;;;;;;;;;5113905;28;19931;-68
2022/07/31 06:08:11;;;;;;;;;;;;;;;;;;5113500;28;19928;-69
2022/07/31 06:10:37;;;;;;;;;;;;;;;;;;5113383;28;19931;-68
2022/07/31 06:13:04;;;;;;;;;;;;;;;;;;5113785;28;19946;-69
2022/07/31 06:15:31;;;;;;;;;;;;;;;;;;5113474;28;20025;-68
2022/07/31 06:17:58;;;;;;;;;;;;;;;;;;5113308;28;19924;-69
2022/07/31 06:20:25;;;;;;;;;;;;;;;;;;5112821;28;19924;-69
2022/07/31 06:22:53;;;;;;;;;;;;;;;;;;5113040;28;19924;-68
2022/07/31 06:25:20;;;;;;;;;;;;;;;;;;5112966;28;19924;-68
2022/07/31 06:27:46;;;;;;;;;;;;;;;;;;5112984;28;19931;-68
2022/07/31 06:30:13;;;;;;;;;;;;;;;;;;5112637;28;19923;-68
2022/07/31 06:32:40;;;;;;;;;;;;;;;;;;5112992;28;20273;-67
2022/07/31 06:35:07;;;;;;;;;;;;;;;;;;5113056;28;20350;-71
2022/07/31 06:37:34;;;;;;;;;;;;;;;;;;5112805;28;20373;-69
2022/07/31 06:40:02;;;;;;;;;;;;;;;;;;5112174;28;19924;-69
2022/07/31 06:42:29;;;;;;;;;;;;;;;;;;5111883;28;19931;-70
2022/07/31 06:44:55;;;;;;;;;;;;;;;;;;5112868;28;19928;-70
2022/07/31 06:47:23;;;;;;;;;;;;;;;;;;5113082;28;19930;-69
2022/07/31 06:49:50;;;;;;;;;;;;;;;;;;5113046;28;20316;-69
2022/07/31 06:52:16;;;;;;;;;;;;;;;;;;5112261;28;20168;-69
2022/07/31 06:54:44;;;;;;;;;;;;;;;;;;5112997;28;19924;-68
2022/07/31 06:57:12;;;;;;;;;;;;;;;;;;5112811;28;20308;-70
2022/07/31 06:59:38;;;;;;;;;;;;;;;;;;5113517;28;19946;-69
2022/07/31 07:02:05;;;;;;;;;;;;;;;;;;5113270;28;19976;-69
2022/07/31 07:04:32;;;;;;;;;;;;;;;;;;5113633;28;19969;-70
2022/07/31 07:06:58;;;;;;;;;;;;;;;;;;5113503;28;20403;-69
2022/07/31 07:09:25;;;;;;;;;;;;;;;;;;5113196;28;20280;-70
2022/07/31 07:11:51;;;;;;;;;;;;;;;;;;5113337;28;19924;-70
2022/07/31 07:14:20;;;;;;;;;;;;;;;;;;5112722;28;19931;-69
2022/07/31 07:16:46;;;;;;;;;;;;;;;;;;5113030;28;19963;-69
2022/07/31 07:19:13;;;;;;;;;;;;;;;;;;5116347;28;19931;-70
2022/07/31 07:21:39;;;;;;;;;;;;;;;;;;5116844;28;19924;-69
2022/07/31 07:24:07;;;;;;;;;;;;;;;;;;5116795;28;20334;-69
2022/07/31 07:26:33;;;;;;;;;;;;;;;;;;5116723;28;19967;-69
2022/07/31 07:29:01;;;;;;;;;;;;;;;;;;5116384;28;20477;-70
2022/07/31 07:31:29;;;;;;;;;;;;;;;;;;5116563;28;19924;-70
2022/07/31 07:33:55;;;;;;;;;;;;;;;;;;5116283;28;19924;-69
2022/07/31 07:36:22;;;;;;;;;;;;;;;;;;5116869;28;19923;-70
2022/07/31 07:38:49;;;;;;;;;;;;;;;;;;5117823;28;19928;-70
2022/07/31 07:41:15;;;;;;;;;;;;;;;;;;5117303;28;20274;-70
2022/07/31 07:43:42;;;;;;;;;;;;;;;;;;5117841;28;19924;-71
2022/07/31 07:46:09;;;;;;;;;;;;;;;;;;5118241;28;19924;-70
2022/07/31 07:48:37;;;;;;;;;;;;;;;;;;5117698;28;19924;-70
2022/07/31 07:51:04;;;;;;;;;;;;;;;;;;5117365;28;19924;-69
2022/07/31 07:53:30;;;;;;;;;;;;;;;;;;5117385;28;19931;-70
2022/07/31 07:55:57;;;;;;;;;;;;;;;;;;5116462;28;19928;-69
2022/07/31 07:58:24;;;;;;;;;;;;;;;;;;5116843;28;19959;-69
2022/07/31 08:00:51;;;;;;;;;;;;;;;;;;5116275;28;19923;-70
2022/07/31 08:03:17;;;;;;;;;;;;;;;;;;5115815;28;19927;-70
2022/07/31 08:05:45;;;;;;;;;;;;;;;;;;5116121;28;19947;-70
2022/07/31 08:08:12;;;;;;;;;;;;;;;;;;5116540;28;20407;-69
2022/07/31 08:10:39;;;;;;;;;;;;;;;;;;5115919;28;19924;-69
2022/07/31 08:13:06;;;;;;;;;;;;;;;;;;5117730;28;20288;-69
2022/07/31 08:15:33;;;;;;;;;;;;;;;;;;5117725;28;20395;-70
2022/07/31 08:17:59;;;;;;;;;;;;;;;;;;5116207;28;19945;-69
2022/07/31 08:20:26;;;;;;;;;;;;;;;;;;5115639;28;19931;-70
2022/07/31 08:22:54;;;;;;;;;;;;;;;;;;5116978;28;19924;-69
2022/07/31 08:25:21;;;;;;;;;;;;;;;;;;5117438;28;19981;-70
2022/07/31 08:27:48;;;;;;;;;;;;;;;;;;5117637;28;20385;-69
2022/07/31 08:30:15;;;;;;;;;;;;;;;;;;5115032;28;19923;-69
2022/07/31 08:32:42;;;;;;;;;;;;;;;;;;5115894;28;19924;-69
2022/07/31 08:35:09;;;;;;;;;;;;;;;;;;5116240;28;19923;-70
2022/07/31 08:37:35;;;;;;;;;;;;;;;;;;5115408;28;19924;-70
2022/07/31 08:40:04;;;;;;;;;;;;;;;;;;5115573;28;19930;-70
2022/07/31 08:42:31;;;;;;;;;;;;;;;;;;5115612;28;19946;-70
2022/07/31 08:44:57;;;;;;;;;;;;;;;;;;5115253;28;19928;-70
2022/07/31 08:47:25;;;;;;;;;;;;;;;;;;5115592;28;19929;-70
2022/07/31 08:49:52;;;;;;;;;;;;;;;;;;5116144;28;19924;-70
2022/07/31 08:52:19;;;;;;;;;;;;;;;;;;5116517;28;19931;-68
2022/07/31 08:54:46;;;;;;;;;;;;;;;;;;5116105;28;19924;-70
2022/07/31 08:57:14;;;;;;;;;;;;;;;;;;5115183;28;19924;-70
2022/07/31 08:59:42;;;;;;;;;;;;;;;;;;5114263;28;20006;-70
2022/07/31 09:02:08;;;;;;;;;;;;;;;;;;5094676;28;19924;-70
2022/07/31 09:04:35;;;;;;;;;;;;;;;;;;5094468;28;19939;-68
2022/07/31 09:07:01;;;;;;;;;;;;;;;;;;5094635;28;19924;-69
2022/07/31 09:09:28;;;;;;;;;;;;;;;;;;5094281;28;19981;-69
2022/07/31 09:11:55;;;;;;;;;;;;;;;;;;5094187;28;19977;-68
2022/07/31 09:14:27;;;;;;;;;;;;;;;;;;5094128;28;20446;-69
2022/07/31 09:16:54;;;;;;;;;;;;;;;;;;5094128;28;19979;-68
2022/07/31 09:19:21;;;;;;;;;;;;;;;;;;5093752;28;19924;-70
2022/07/31 09:21:48;;;;;;;;;;;;;;;;;;5094175;28;20442;-68
2022/07/31 09:24:25;;;;;;;;;;;;;;;;;;5093899;28;19970;-68
2022/07/31 09:26:54;;;;;;;;;;;;;;;;;;5094327;28;20381;-69
2022/07/31 09:29:32;;;;;;;;;;;;;;;;;;5093948;28;20350;-71
2022/07/31 09:32:08;;;;;;;;;;;;;;;;;;5094802;28;20411;-69
2022/07/31 09:34:35;;;;;;;;;;;;;;;;;;5094363;28;19931;-69
2022/07/31 09:37:07;;;;;;;;;;;;;;;;;;5094208;28;19924;-69
2022/07/31 09:39:34;;;;;;;;;;;;;;;;;;5093540;28;20369;-70
2022/07/31 09:42:00;;;;;;;;;;;;;;;;;;5092520;28;19931;-68
2022/07/31 09:44:35;;;;;;;;;;;;;;;;;;5094111;28;20404;-68
2022/07/31 09:47:01;;;;;;;;;;;;;;;;;;5094388;28;19947;-69
2022/07/31 09:49:33;;;;;;;;;;;;;;;;;;5093747;28;19924;-68
2022/07/31 09:52:00;;;;;;;;;;;;;;;;;;5093924;28;19931;-68
2022/07/31 09:54:28;;;;;;;;;;;;;;;;;;5093598;28;19932;-69
2022/07/31 09:56:55;;;;;;;;;;;;;;;;;;5093616;28;19946;-69
2022/07/31 09:59:22;;;;;;;;;;;;;;;;;;5093550;28;19983;-69
2022/07/31 10:01:49;;;;;;;;;;;;;;;;;;5111145;28;19928;-69
2022/07/31 10:04:16;;;;;;;;;;;;;;;;;;5114397;28;20005;-68
2022/07/31 10:06:46;;;;;;;;;;;;;;;;;;5113746;28;19928;-68
2022/07/31 10:09:14;;;;;;;;;;;;;;;;;;5113505;28;19924;-69
2022/07/31 10:11:41;;;;;;;;;;;;;;;;;;5114223;28;20349;-69
2022/07/31 10:14:10;;;;;;;;;;;;;;;;;;5114542;28;19966;-69
2022/07/31 10:16:37;;;;;;;;;;;;;;;;;;5113033;28;19946;-69
2022/07/31 10:19:10;;;;;;;;;;;;;;;;;;5113545;28;20010;-69
2022/07/31 10:21:38;;;;;;;;;;;;;;;;;;5113807;28;19938;-69
2022/07/31 10:24:07;;;;;;;;;;;;;;;;;;5113545;28;19979;-69
2022/07/31 10:26:34;;;;;;;;;;;;;;;;;;5113454;28;19931;-70
2022/07/31 10:29:00;;;;;;;;;;;;;;;;;;5113314;28;19938;-69
2022/07/31 10:31:29;;;;;;;;;;;;;;;;;;5113483;28;20022;-69
2022/07/31 10:33:57;;;;;;;;;;;;;;;;;;5113535;28;19924;-69
2022/07/31 10:36:25;;;;;;;;;;;;;;;;;;5113266;28;20301;-68
2022/07/31 10:38:54;;;;;;;;;;;;;;;;;;5113425;28;19923;-69
2022/07/31 10:41:30;;;;;;;;;;;;;;;;;;5112706;28;19930;-69
2022/07/31 10:43:59;;;;;;;;;;;;;;;;;;5113323;28;20409;-69
2022/07/31 10:46:27;;;;;;;;;;;;;;;;;;5113283;28;19923;-69
2022/07/31 10:48:53;;;;;;;;;;;;;;;;;;5113398;28;20338;-69
2022/07/31 10:51:21;;;;;;;;;;;;;;;;;;5112844;28;20410;-67
2022/07/31 10:53:55;;;;;;;;;;;;;;;;;;5116473;28;19924;-70
2022/07/31 10:56:23;;;;;;;;;;;;;;;;;;5117477;28;20287;-69
2022/07/31 10:58:50;;;;;;;;;;;;;;;;;;5117158;28;20333;-68
2022/07/31 11:01:17;;;;;;;;;;;;;;;;;;5103080;28;20396;-72
2022/07/31 11:03:45;;;;;;;;;;;;;;;;;;5096854;28;19939;-69
2022/07/31 11:06:14;;;;;;;;;;;;;;;;;;5096474;28;19924;-69
2022/07/31 11:08:41;;;;;;;;;;;;;;;;;;5096605;28;20304;-70
2022/07/31 11:11:08;;;;;;;;;;;;;;;;;;5096026;28;19928;-69
2022/07/31 11:13:46;;;;;;;;;;;;;;;;;;5096664;28;19939;-69
2022/07/31 11:16:13;;;;;;;;;;;;;;;;;;5096312;28;19924;-70
2022/07/31 11:18:39;;;;;;;;;;;;;;;;;;5096045;28;19928;-69
2022/07/31 11:21:07;;;;;;;;;;;;;;;;;;5096198;28;19931;-68
2022/07/31 11:23:34;;;;;;;;;;;;;;;;;;5097019;28;19924;-68
2022/07/31 11:26:01;;;;;;;;;;;;;;;;;;5096682;28;19931;-69
2022/07/31 11:28:28;;;;;;;;;;;;;;;;;;5096424;28;19928;-68
2022/07/31 11:30:57;;;;;;;;;;;;;;;;;;5095488;28;19931;-68
2022/07/31 11:33:30;;;;;;;;;;;;;;;;;;5096212;28;19950;-68
2022/07/31 11:35:57;;;;;;;;;;;;;;;;;;5096240;28;19924;-68
2022/07/31 11:38:27;;;;;;;;;;;;;;;;;;5096445;28;20373;-69
2022/07/31 11:40:54;;;;;;;;;;;;;;;;;;5095976;28;19928;-68
2022/07/31 11:43:21;;;;;;;;;;;;;;;;;;5095703;28;19931;-69
2022/07/31 11:45:48;;;;;;;;;;;;;;;;;;5096234;28;20290;-68
2022/07/31 11:48:17;;;;;;;;;;;;;;;;;;5096239;28;19924;-69
2022/07/31 11:50:44;;;;;;;;;;;;;;;;;;5095445;28;19990;-68
2022/07/31 11:53:11;;;;;;;;;;;;;;;;;;5096052;28;20049;-70
2022/07/31 11:55:44;;;;;;;;;;;;;;;;;;5095961;28;19924;-68
2022/07/31 11:58:11;;;;;;;;;;;;;;;;;;5095724;28;19939;-69
2022/07/31 12:00:37;;;;;;;;;;;;;;;;;;5103645;28;20338;-68
2022/07/31 12:03:05;;;;;;;;;;;;;;;;;;5116105;28;19924;-67
2022/07/31 12:05:43;;;;;;;;;;;;;;;;;;5114994;28;19993;-67
2022/07/31 12:08:10;;;;;;;;;;;;;;;;;;5115992;28;19932;-68
2022/07/31 12:10:38;;;;;;;;;;;;;;;;;;5116023;28;19923;-68
2022/07/31 12:13:05;;;;;;;;;;;;;;;;;;5116402;28;19924;-69
2022/07/31 12:15:38;;;;;;;;;;;;;;;;;;5116691;28;19923;-69
2022/07/31 12:18:05;;;;;;;;;;;;;;;;;;5116160;28;19950;-67
2022/07/31 12:20:32;;;;;;;;;;;;;;;;;;5116279;28;19931;-69
2022/07/31 12:23:00;;;;;;;;;;;;;;;;;;5115435;28;19981;-69
2022/07/31 12:25:28;;;;;;;;;;;;;;;;;;5115529;28;20288;-68
2022/07/31 12:27:55;;;;;;;;;;;;;;;;;;5115030;28;19931;-69
2022/07/31 12:30:23;;;;;;;;;;;;;;;;;;5116111;28;19923;-67
2022/07/31 12:32:49;;;;;;;;;;;;;;;;;;5114930;28;19938;-68
2022/07/31 12:35:16;;;;;;;;;;;;;;;;;;5115322;28;19946;-68
2022/07/31 12:37:44;;;;;;;;;;;;;;;;;;5115154;28;19923;-68
2022/07/31 12:40:22;;;;;;;;;;;;;;;;;;5162701;22;19974;-86
2022/07/31 12:42:49;;;;;;;;;;;;;;;;;;5128893;28;19930;-86
2022/07/31 12:45:15;;;;;;;;;;;;;;;;;;5125269;28;19928;-86
2022/07/31 12:47:42;;;;;;;;;;;;;;;;;;5119156;28;19933;-85
2022/07/31 12:50:09;;;;;;;;;;;;;;;;;;5117980;28;19973;-86
2022/07/31 12:52:36;;;;;;;;;;;;;;;;;;5118674;28;19967;-84
2022/07/31 12:55:03;;;;;;;;;;;;;;;;;;5117410;28;19924;-85
2022/07/31 12:57:31;;;;;;;;;;;;;;;;;;5117804;28;19927;-87
2022/07/31 12:59:58;;;;;;;;;;;;;;;;;;5119246;28;20295;-82
2022/07/31 13:02:24;;;;;;;;;;;;;;;;;;5119736;28;19981;-83
2022/07/31 13:04:51;;;;;;;;;;;;;;;;;;5119529;28;19984;-84
2022/07/31 13:07:19;;;;;;;;;;;;;;;;;;5118810;28;19924;-86
2022/07/31 13:09:46;;;;;;;;;;;;;;;;;;5117360;28;19931;-84
2022/07/31 13:12:12;;;;;;;;;;;;;;;;;;5119703;28;19923;-84
2022/07/31 13:14:40;;;;;;;;;;;;;;;;;;5117341;28;19967;-84
2022/07/31 13:17:07;;;;;;;;;;;;;;;;;;5115888;28;20378;-87
2022/07/31 13:19:33;;;;;;;;;;;;;;;;;;5117156;28;20390;-87
2022/07/31 13:22:00;;;;;;;;;;;;;;;;;;5115921;28;19924;-85
2022/07/31 13:24:27;;;;;;;;;;;;;;;;;;5117587;28;19966;-85
2022/07/31 13:26:53;;;;;;;;;;;;;;;;;;5117098;28;19985;-87
2022/07/31 13:29:20;;;;;;;;;;;;;;;;;;5116417;28;19924;-90
2022/07/31 13:31:48;;;;;;;;;;;;;;;;;;5117477;28;20015;-85
2022/07/31 13:34:15;;;;;;;;;;;;;;;;;;5116378;28;19924;-85
2022/07/31 13:36:41;;;;;;;;;;;;;;;;;;5118556;28;19969;-83
2022/07/31 13:39:08;;;;;;;;;;;;;;;;;;5118157;28;19966;-86
2022/07/31 13:41:35;;;;;;;;;;;;;;;;;;5116658;28;19952;-87
2022/07/31 13:44:02;;;;;;;;;;;;;;;;;;5117180;28;19924;-82
2022/07/31 13:46:28;;;;;;;;;;;;;;;;;;5117461;28;19967;-84
2022/07/31 13:48:58;;;;;;;;;;;;;;;;;;5116256;28;19924;-86
2022/07/31 13:51:25;;;;;;;;;;;;;;;;;;5117239;28;19958;-88
2022/07/31 13:53:51;;;;;;;;;;;;;;;;;;5115356;28;20332;-83
2022/07/31 13:56:18;;;;;;;;;;;;;;;;;;5116730;28;19963;-81
2022/07/31 13:58:45;;;;;;;;;;;;;;;;;;5116643;28;19980;-83
2022/07/31 14:01:12;;;;;;;;;;;;;;;;;;5117277;28;19984;-82
2022/07/31 14:03:38;;;;;;;;;;;;;;;;;;5116837;28;19963;-83
2022/07/31 14:06:06;;;;;;;;;;;;;;;;;;5119022;28;20394;-81
2022/07/31 14:08:33;;;;;;;;;;;;;;;;;;5118940;28;20390;-83
2022/07/31 14:10:59;;;;;;;;;;;;;;;;;;5119483;28;19924;-83
2022/07/31 14:13:26;;;;;;;;;;;;;;;;;;5130565;28;19949;-82
2022/07/31 14:15:52;;;;;;;;;;;;;;;;;;5135835;28;19935;-83
2022/07/31 14:18:19;;;;;;;;;;;;;;;;;;5131134;28;19923;-83
2022/07/31 14:20:45;;;;;;;;;;;;;;;;;;5124150;28;19924;-83
2022/07/31 14:23:13;;;;;;;;;;;;;;;;;;5131347;28;19933;-83
2022/07/31 14:25:40;;;;;;;;;;;;;;;;;;5132468;28;19930;-87
2022/07/31 14:28:07;;;;;;;;;;;;;;;;;;5131569;28;19927;-85
2022/07/31 14:30:34;;;;;;;;;;;;;;;;;;5134313;28;19920;-85
2022/07/31 14:33:01;;;;;;;;;;;;;;;;;;5136725;28;19912;-85
2022/07/31 14:35:28;;;;;;;;;;;;;;;;;;5133019;28;20022;-84
2022/07/31 14:37:54;;;;;;;;;;;;;;;;;;5135636;28;19973;-85
2022/07/31 14:40:22;;;;;;;;;;;;;;;;;;5135403;28;19924;-85
2022/07/31 14:42:48;;;;;;;;;;;;;;;;;;5135650;28;19978;-84
2022/07/31 14:45:15;;;;;;;;;;;;;;;;;;5135221;28;19912;-84
2022/07/31 14:47:43;;;;;;;;;;;;;;;;;;5135537;28;19924;-84
2022/07/31 14:50:10;;;;;;;;;;;;;;;;;;5134186;28;19908;-84
2022/07/31 14:52:36;;;;;;;;;;;;;;;;;;5134669;28;19934;-84
2022/07/31 14:55:04;;;;;;;;;;;;;;;;;;5133346;28;19949;-85
2022/07/31 14:57:35;;;;;;;;;;;;;;;;;;5135478;28;19924;-86
2022/07/31 15:00:02;;;;;;;;;;;;;;;;;;5137799;28;19915;-86
2022/07/31 15:02:28;;;;;;;;;;;;;;;;;;5138204;28;19912;-86
2022/07/31 15:04:55;;;;;;;;;;;;;;;;;;5133983;28;20005;-86
2022/07/31 15:07:21;;;;;;;;;;;;;;;;;;5122160;28;19927;-85
2022/07/31 15:09:48;;;;;;;;;;;;;;;;;;5121537;28;20003;-84
2022/07/31 15:12:15;;;;;;;;;;;;;;;;;;5120572;28;19923;-85
2022/07/31 15:14:43;;;;;;;;;;;;;;;;;;5121148;28;19944;-84
2022/07/31 15:17:10;;;;;;;;;;;;;;;;;;5120612;28;19924;-86
2022/07/31 15:19:39;;;;;;;;;;;;;;;;;;5120112;28;19994;-84
2022/07/31 15:22:06;;;;;;;;;;;;;;;;;;5118779;28;19946;-86
2022/07/31 15:24:32;;;;;;;;;;;;;;;;;;5132955;28;19933;-85
2022/07/31 15:26:59;;;;;;;;;;;;;;;;;;5138263;28;19928;-85
2022/07/31 15:29:26;;;;;;;;;;;;;;;;;;5137692;28;19912;-86
2022/07/31 15:31:54;;;;;;;;;;;;;;;;;;5118570;28;19988;-85
2022/07/31 15:34:20;;;;;;;;;;;;;;;;;;5121864;28;19924;-84
2022/07/31 15:36:47;;;;;;;;;;;;;;;;;;5115748;28;19924;-85
2022/07/31 15:39:14;;;;;;;;;;;;;;;;;;5117276;28;19923;-83
2022/07/31 15:41:41;;;;;;;;;;;;;;;;;;5116855;28;20022;-84
2022/07/31 15:44:07;;;;;;;;;;;;;;;;;;5117449;28;19928;-83
2022/07/31 15:46:34;;;;;;;;;;;;;;;;;;5117162;28;20335;-85
2022/07/31 15:49:02;;;;;;;;;;;;;;;;;;5116399;28;19963;-85
2022/07/31 15:51:29;;;;;;;;;;;;;;;;;;5115722;28;20416;-85
2022/07/31 15:53:55;;;;;;;;;;;;;;;;;;5116717;28;19963;-84
2022/07/31 15:56:22;;;;;;;;;;;;;;;;;;5116233;28;19967;-85
2022/07/31 15:58:48;;;;;;;;;;;;;;;;;;5115313;28;20014;-84
2022/07/31 16:01:15;;;;;;;;;;;;;;;;;;5115856;28;19928;-84
2022/07/31 16:03:41;;;;;;;;;;;;;;;;;;5118618;28;19963;-84
2022/07/31 16:06:09;;;;;;;;;;;;;;;;;;5139542;28;19950;-84
2022/07/31 16:08:35;;;;;;;;;;;;;;;;;;5140120;28;19952;-84
2022/07/31 16:11:02;;;;;;;;;;;;;;;;;;5127878;28;19945;-85
2022/07/31 16:13:30;;;;;;;;;;;;;;;;;;5117043;28;19959;-85
2022/07/31 16:15:56;;;;;;;;;;;;;;;;;;5115933;28;19924;-85
2022/07/31 16:18:23;;;;;;;;;;;;;;;;;;5116304;28;20026;-85
2022/07/31 16:20:49;;;;;;;;;;;;;;;;;;5116421;28;19947;-85
2022/07/31 16:23:17;;;;;;;;;;;;;;;;;;5116466;28;19923;-84
2022/07/31 16:25:44;;;;;;;;;;;;;;;;;;5119009;28;19924;-85
2022/07/31 16:28:10;;;;;;;;;;;;;;;;;;5129732;28;19989;-84
2022/07/31 16:30:37;;;;;;;;;;;;;;;;;;5122022;28;19944;-85
2022/07/31 16:33:03;;;;;;;;;;;;;;;;;;5129281;28;19924;-84
2022/07/31 16:35:30;;;;;;;;;;;;;;;;;;5121495;28;19931;-85
2022/07/31 16:37:56;;;;;;;;;;;;;;;;;;5118332;28;20370;-85
2022/07/31 16:40:25;;;;;;;;;;;;;;;;;;5046300;28;1836727;-85
2022/07/31 16:42:52;;;;;;;;;;;;;;;;;;5105507;28;19924;-85
2022/07/31 16:45:18;;;;;;;;;;;;;;;;;;5117493;28;19928;-85
2022/07/31 16:47:45;;;;;;;;;;;;;;;;;;5118328;28;19977;-85